sensor_id;sensor_type;location;lat;lon;timestamp;P1;durP1;ratioP1;P2;durP2;ratioP2
33413;SDS011;60055;41.884;12.534;2022-09-02T00:00:50;8.40;;;2.47;;
33413;SDS011;60055;41.884;12.534;2022-09-02T00:03:18;8.18;;;2.50;;
33413;SDS011;60055;41.884;12.534;2022-09-02T00:05:44;9.88;;;2.30;;
33413;SDS011;60055;41.884;12.534;2022-09-02T00:08:10;7.53;;;2.40;;
33413;SDS011;60055;41.884;12.534;2022-09-02T00:10:38;9.73;;;2.35;;
33413;SDS011;60055;41.884;12.534;2022-09-02T00:13:07;8.73;;;2.50;;
33413;SDS011;60055;41.884;12.534;2022-09-02T00:15:35;8.68;;;2.50;;
33413;SDS011;60055;41.884;12.534;2022-09-02T00:18:01;6.60;;;2.38;;
33413;SDS011;60055;41.884;12.534;2022-09-02T00:20:29;10.95;;;2.55;;
33413;SDS011;60055;41.884;12.534;2022-09-02T00:22:55;7.35;;;2.75;;
33413;SDS011;60055;41.884;12.534;2022-09-02T00:25:21;7.05;;;4.00;;
33413;SDS011;60055;41.884;12.534;2022-09-02T00:27:47;6.70;;;2.45;;
33413;SDS011;60055;41.884;12.534;2022-09-02T00:30:13;5.45;;;2.28;;
33413;SDS011;60055;41.884;12.534;2022-09-02T00:32:39;8.43;;;2.80;;
33413;SDS011;60055;41.884;12.534;2022-09-02T00:35:05;6.00;;;2.90;;
33413;SDS011;60055;41.884;12.534;2022-09-02T00:37:31;9.15;;;2.80;;
33413;SDS011;60055;41.884;12.534;2022-09-02T00:39:58;6.30;;;2.70;;
33413;SDS011;60055;41.884;12.534;2022-09-02T00:42:24;6.10;;;2.92;;
33413;SDS011;60055;41.884;12.534;2022-09-02T00:44:50;8.60;;;2.70;;
33413;SDS011;60055;41.884;12.534;2022-09-02T00:47:16;9.48;;;2.75;;
33413;SDS011;60055;41.884;12.534;2022-09-02T00:49:44;9.57;;;2.92;;
33413;SDS011;60055;41.884;12.534;2022-09-02T00:52:18;12.38;;;3.00;;
33413;SDS011;60055;41.884;12.534;2022-09-02T00:55:05;9.50;;;2.88;;
33413;SDS011;60055;41.884;12.534;2022-09-02T00:57:37;8.07;;;2.90;;
33413;SDS011;60055;41.884;12.534;2022-09-02T01:00:16;7.18;;;2.63;;
33413;SDS011;60055;41.884;12.534;2022-09-02T01:02:51;8.32;;;2.70;;
33413;SDS011;60055;41.884;12.534;2022-09-02T01:05:20;8.52;;;2.72;;
33413;SDS011;60055;41.884;12.534;2022-09-02T01:07:47;7.40;;;2.72;;
33413;SDS011;60055;41.884;12.534;2022-09-02T01:10:17;10.18;;;2.83;;
33413;SDS011;60055;41.884;12.534;2022-09-02T01:12:44;8.73;;;2.80;;
33413;SDS011;60055;41.884;12.534;2022-09-02T01:15:10;7.13;;;2.85;;
33413;SDS011;60055;41.884;12.534;2022-09-02T01:17:38;8.38;;;2.80;;
33413;SDS011;60055;41.884;12.534;2022-09-02T01:20:08;11.38;;;2.60;;
33413;SDS011;60055;41.884;12.534;2022-09-02T01:22:37;5.20;;;2.60;;
33413;SDS011;60055;41.884;12.534;2022-09-02T01:25:10;7.03;;;2.50;;
33413;SDS011;60055;41.884;12.534;2022-09-02T01:27:38;10.15;;;2.42;;
33413;SDS011;60055;41.884;12.534;2022-09-02T01:30:05;12.55;;;2.80;;
33413;SDS011;60055;41.884;12.534;2022-09-02T01:32:32;8.85;;;2.50;;
33413;SDS011;60055;41.884;12.534;2022-09-02T01:34:58;8.68;;;2.40;;
33413;SDS011;60055;41.884;12.534;2022-09-02T01:37:24;7.20;;;2.40;;
33413;SDS011;60055;41.884;12.534;2022-09-02T01:39:49;7.90;;;2.60;;
33413;SDS011;60055;41.884;12.534;2022-09-02T01:42:16;7.75;;;2.55;;
33413;SDS011;60055;41.884;12.534;2022-09-02T01:44:43;6.70;;;2.45;;
33413;SDS011;60055;41.884;12.534;2022-09-02T01:47:12;7.18;;;2.50;;
33413;SDS011;60055;41.884;12.534;2022-09-02T01:49:40;8.95;;;2.67;;
33413;SDS011;60055;41.884;12.534;2022-09-02T01:52:06;9.32;;;2.50;;
33413;SDS011;60055;41.884;12.534;2022-09-02T01:54:32;6.47;;;2.25;;
33413;SDS011;60055;41.884;12.534;2022-09-02T01:56:59;8.80;;;2.45;;
33413;SDS011;60055;41.884;12.534;2022-09-02T01:59:24;9.50;;;2.75;;
33413;SDS011;60055;41.884;12.534;2022-09-02T02:01:50;9.77;;;2.95;;
33413;SDS011;60055;41.884;12.534;2022-09-02T02:04:16;5.28;;;2.70;;
33413;SDS011;60055;41.884;12.534;2022-09-02T02:06:42;7.88;;;2.78;;
33413;SDS011;60055;41.884;12.534;2022-09-02T02:09:09;9.70;;;2.83;;
33413;SDS011;60055;41.884;12.534;2022-09-02T02:11:36;7.07;;;2.88;;
33413;SDS011;60055;41.884;12.534;2022-09-02T02:14:03;7.13;;;2.95;;
33413;SDS011;60055;41.884;12.534;2022-09-02T02:16:29;5.88;;;2.78;;
33413;SDS011;60055;41.884;12.534;2022-09-02T02:18:55;7.95;;;2.50;;
33413;SDS011;60055;41.884;12.534;2022-09-02T02:21:22;5.82;;;2.53;;
33413;SDS011;60055;41.884;12.534;2022-09-02T02:23:48;8.30;;;2.40;;
33413;SDS011;60055;41.884;12.534;2022-09-02T02:26:14;6.55;;;2.80;;
33413;SDS011;60055;41.884;12.534;2022-09-02T02:28:39;10.13;;;2.55;;
33413;SDS011;60055;41.884;12.534;2022-09-02T02:31:05;5.95;;;2.30;;
33413;SDS011;60055;41.884;12.534;2022-09-02T02:33:31;5.40;;;2.13;;
33413;SDS011;60055;41.884;12.534;2022-09-02T02:35:58;7.18;;;2.40;;
33413;SDS011;60055;41.884;12.534;2022-09-02T02:38:23;10.63;;;2.60;;
33413;SDS011;60055;41.884;12.534;2022-09-02T02:40:52;7.40;;;2.20;;
33413;SDS011;60055;41.884;12.534;2022-09-02T02:43:20;5.30;;;2.13;;
33413;SDS011;60055;41.884;12.534;2022-09-02T02:45:46;4.60;;;2.00;;
33413;SDS011;60055;41.884;12.534;2022-09-02T02:48:12;7.28;;;2.10;;
33413;SDS011;60055;41.884;12.534;2022-09-02T02:50:37;5.90;;;2.10;;
33413;SDS011;60055;41.884;12.534;2022-09-02T02:53:03;3.70;;;2.17;;
33413;SDS011;60055;41.884;12.534;2022-09-02T02:55:29;4.25;;;2.08;;
33413;SDS011;60055;41.884;12.534;2022-09-02T02:57:54;6.95;;;2.20;;
33413;SDS011;60055;41.884;12.534;2022-09-02T03:00:21;8.45;;;2.10;;
33413;SDS011;60055;41.884;12.534;2022-09-02T03:02:49;7.40;;;2.65;;
33413;SDS011;60055;41.884;12.534;2022-09-02T03:05:19;6.78;;;2.10;;
33413;SDS011;60055;41.884;12.534;2022-09-02T03:07:45;8.07;;;2.22;;
33413;SDS011;60055;41.884;12.534;2022-09-02T03:10:11;4.30;;;2.20;;
33413;SDS011;60055;41.884;12.534;2022-09-02T03:12:37;5.70;;;2.92;;
33413;SDS011;60055;41.884;12.534;2022-09-02T03:15:04;3.28;;;2.30;;
33413;SDS011;60055;41.884;12.534;2022-09-02T03:17:32;12.30;;;2.80;;
33413;SDS011;60055;41.884;12.534;2022-09-02T03:19:58;4.22;;;2.20;;
33413;SDS011;60055;41.884;12.534;2022-09-02T03:22:24;6.90;;;2.42;;
33413;SDS011;60055;41.884;12.534;2022-09-02T03:24:51;6.38;;;2.17;;
33413;SDS011;60055;41.884;12.534;2022-09-02T03:27:17;8.80;;;2.30;;
33413;SDS011;60055;41.884;12.534;2022-09-02T03:29:42;11.88;;;2.55;;
33413;SDS011;60055;41.884;12.534;2022-09-02T03:32:08;6.22;;;2.40;;
33413;SDS011;60055;41.884;12.534;2022-09-02T03:34:34;8.95;;;2.13;;
33413;SDS011;60055;41.884;12.534;2022-09-02T03:37:00;8.98;;;2.55;;
33413;SDS011;60055;41.884;12.534;2022-09-02T03:39:26;6.13;;;2.63;;
33413;SDS011;60055;41.884;12.534;2022-09-02T03:41:55;7.28;;;2.63;;
33413;SDS011;60055;41.884;12.534;2022-09-02T03:44:20;7.70;;;2.30;;
33413;SDS011;60055;41.884;12.534;2022-09-02T03:46:46;7.53;;;2.33;;
33413;SDS011;60055;41.884;12.534;2022-09-02T03:49:12;7.13;;;2.38;;
33413;SDS011;60055;41.884;12.534;2022-09-02T03:51:39;9.13;;;2.20;;
33413;SDS011;60055;41.884;12.534;2022-09-02T03:54:05;6.75;;;2.30;;
33413;SDS011;60055;41.884;12.534;2022-09-02T03:56:31;12.68;;;2.60;;
33413;SDS011;60055;41.884;12.534;2022-09-02T03:58:58;7.97;;;2.40;;
33413;SDS011;60055;41.884;12.534;2022-09-02T04:01:24;4.22;;;2.33;;
33413;SDS011;60055;41.884;12.534;2022-09-02T04:03:50;9.57;;;2.40;;
33413;SDS011;60055;41.884;12.534;2022-09-02T04:06:17;9.75;;;2.58;;
33413;SDS011;60055;41.884;12.534;2022-09-02T04:08:44;5.68;;;2.10;;
33413;SDS011;60055;41.884;12.534;2022-09-02T04:11:12;7.50;;;2.42;;
33413;SDS011;60055;41.884;12.534;2022-09-02T04:13:41;10.48;;;4.80;;
33413;SDS011;60055;41.884;12.534;2022-09-02T04:16:09;6.85;;;1.88;;
33413;SDS011;60055;41.884;12.534;2022-09-02T04:18:39;6.20;;;2.15;;
33413;SDS011;60055;41.884;12.534;2022-09-02T04:21:06;4.40;;;1.98;;
33413;SDS011;60055;41.884;12.534;2022-09-02T04:23:32;7.35;;;1.98;;
33413;SDS011;60055;41.884;12.534;2022-09-02T04:26:02;6.70;;;2.38;;
33413;SDS011;60055;41.884;12.534;2022-09-02T04:28:33;5.15;;;2.03;;
33413;SDS011;60055;41.884;12.534;2022-09-02T04:31:02;10.77;;;2.58;;
33413;SDS011;60055;41.884;12.534;2022-09-02T04:33:29;6.57;;;2.38;;
33413;SDS011;60055;41.884;12.534;2022-09-02T04:35:54;14.32;;;2.50;;
33413;SDS011;60055;41.884;12.534;2022-09-02T04:38:20;8.88;;;2.05;;
33413;SDS011;60055;41.884;12.534;2022-09-02T04:40:46;7.10;;;2.28;;
33413;SDS011;60055;41.884;12.534;2022-09-02T04:43:12;9.10;;;2.17;;
33413;SDS011;60055;41.884;12.534;2022-09-02T04:45:40;13.20;;;2.20;;
33413;SDS011;60055;41.884;12.534;2022-09-02T04:48:07;9.50;;;2.28;;
33413;SDS011;60055;41.884;12.534;2022-09-02T04:50:34;14.75;;;1.80;;
33413;SDS011;60055;41.884;12.534;2022-09-02T04:53:01;10.15;;;2.20;;
33413;SDS011;60055;41.884;12.534;2022-09-02T04:55:28;6.72;;;1.90;;
33413;SDS011;60055;41.884;12.534;2022-09-02T04:57:53;5.30;;;2.35;;
33413;SDS011;60055;41.884;12.534;2022-09-02T05:00:20;11.68;;;3.10;;
33413;SDS011;60055;41.884;12.534;2022-09-02T05:02:45;12.35;;;2.45;;
33413;SDS011;60055;41.884;12.534;2022-09-02T05:05:11;8.85;;;2.08;;
33413;SDS011;60055;41.884;12.534;2022-09-02T05:07:37;13.75;;;2.40;;
33413;SDS011;60055;41.884;12.534;2022-09-02T05:10:03;8.25;;;2.00;;
33413;SDS011;60055;41.884;12.534;2022-09-02T05:12:31;8.18;;;1.70;;
33413;SDS011;60055;41.884;12.534;2022-09-02T05:14:58;5.68;;;1.80;;
33413;SDS011;60055;41.884;12.534;2022-09-02T05:17:25;5.38;;;1.90;;
33413;SDS011;60055;41.884;12.534;2022-09-02T05:19:52;9.50;;;1.85;;
33413;SDS011;60055;41.884;12.534;2022-09-02T05:22:17;5.78;;;1.45;;
33413;SDS011;60055;41.884;12.534;2022-09-02T05:24:44;5.22;;;1.50;;
33413;SDS011;60055;41.884;12.534;2022-09-02T05:27:10;6.07;;;1.60;;
33413;SDS011;60055;41.884;12.534;2022-09-02T05:29:37;7.82;;;1.70;;
33413;SDS011;60055;41.884;12.534;2022-09-02T05:32:03;6.28;;;1.63;;
33413;SDS011;60055;41.884;12.534;2022-09-02T05:34:29;4.78;;;1.50;;
33413;SDS011;60055;41.884;12.534;2022-09-02T05:36:54;10.27;;;1.70;;
33413;SDS011;60055;41.884;12.534;2022-09-02T05:39:21;6.35;;;1.40;;
33413;SDS011;60055;41.884;12.534;2022-09-02T05:41:46;11.88;;;1.60;;
33413;SDS011;60055;41.884;12.534;2022-09-02T05:44:12;5.93;;;1.38;;
33413;SDS011;60055;41.884;12.534;2022-09-02T05:46:38;5.88;;;1.40;;
33413;SDS011;60055;41.884;12.534;2022-09-02T05:49:03;5.85;;;1.30;;
33413;SDS011;60055;41.884;12.534;2022-09-02T05:51:41;8.30;;;1.58;;
33413;SDS011;60055;41.884;12.534;2022-09-02T05:54:45;5.72;;;1.50;;
33413;SDS011;60055;41.884;12.534;2022-09-02T05:57:06;4.78;;;1.42;;
33413;SDS011;60055;41.884;12.534;2022-09-02T05:59:34;5.72;;;1.58;;
33413;SDS011;60055;41.884;12.534;2022-09-02T06:02:05;2.70;;;1.35;;
33413;SDS011;60055;41.884;12.534;2022-09-02T06:04:35;2.50;;;1.10;;
33413;SDS011;60055;41.884;12.534;2022-09-02T06:07:02;3.97;;;1.40;;
33413;SDS011;60055;41.884;12.534;2022-09-02T06:09:28;5.38;;;1.33;;
33413;SDS011;60055;41.884;12.534;2022-09-02T06:11:53;7.38;;;1.30;;
33413;SDS011;60055;41.884;12.534;2022-09-02T06:14:21;4.25;;;1.20;;
33413;SDS011;60055;41.884;12.534;2022-09-02T06:16:49;3.85;;;1.33;;
33413;SDS011;60055;41.884;12.534;2022-09-02T06:19:16;6.95;;;1.40;;
33413;SDS011;60055;41.884;12.534;2022-09-02T06:21:42;5.45;;;1.42;;
33413;SDS011;60055;41.884;12.534;2022-09-02T06:24:09;7.03;;;1.40;;
33413;SDS011;60055;41.884;12.534;2022-09-02T06:26:36;7.95;;;1.30;;
33413;SDS011;60055;41.884;12.534;2022-09-02T06:29:03;6.43;;;1.30;;
33413;SDS011;60055;41.884;12.534;2022-09-02T06:31:29;3.30;;;1.05;;
33413;SDS011;60055;41.884;12.534;2022-09-02T06:33:56;7.60;;;1.40;;
33413;SDS011;60055;41.884;12.534;2022-09-02T06:36:25;9.10;;;1.50;;
33413;SDS011;60055;41.884;12.534;2022-09-02T06:38:53;7.55;;;1.35;;
33413;SDS011;60055;41.884;12.534;2022-09-02T06:41:23;6.18;;;1.30;;
33413;SDS011;60055;41.884;12.534;2022-09-02T06:43:53;8.88;;;1.33;;
33413;SDS011;60055;41.884;12.534;2022-09-02T06:46:21;8.52;;;1.50;;
33413;SDS011;60055;41.884;12.534;2022-09-02T06:48:49;10.32;;;1.63;;
33413;SDS011;60055;41.884;12.534;2022-09-02T06:51:16;3.55;;;1.20;;
33413;SDS011;60055;41.884;12.534;2022-09-02T06:53:52;5.25;;;1.27;;
33413;SDS011;60055;41.884;12.534;2022-09-02T06:56:18;7.22;;;1.10;;
33413;SDS011;60055;41.884;12.534;2022-09-02T06:58:44;7.40;;;1.30;;
33413;SDS011;60055;41.884;12.534;2022-09-02T07:01:16;4.50;;;1.20;;
33413;SDS011;60055;41.884;12.534;2022-09-02T07:03:43;10.50;;;1.80;;
33413;SDS011;60055;41.884;12.534;2022-09-02T07:06:27;7.25;;;1.48;;
33413;SDS011;60055;41.884;12.534;2022-09-02T07:08:52;3.30;;;1.20;;
33413;SDS011;60055;41.884;12.534;2022-09-02T07:11:20;5.47;;;1.27;;
33413;SDS011;60055;41.884;12.534;2022-09-02T07:13:47;4.70;;;1.30;;
33413;SDS011;60055;41.884;12.534;2022-09-02T07:16:13;4.88;;;1.00;;
33413;SDS011;60055;41.884;12.534;2022-09-02T07:18:40;4.75;;;1.20;;
33413;SDS011;60055;41.884;12.534;2022-09-02T07:21:07;5.70;;;1.30;;
33413;SDS011;60055;41.884;12.534;2022-09-02T07:23:35;5.25;;;1.10;;
33413;SDS011;60055;41.884;12.534;2022-09-02T07:26:00;4.35;;;1.10;;
33413;SDS011;60055;41.884;12.534;2022-09-02T07:28:26;8.38;;;1.27;;
33413;SDS011;60055;41.884;12.534;2022-09-02T07:30:52;2.70;;;0.98;;
33413;SDS011;60055;41.884;12.534;2022-09-02T07:33:19;2.95;;;1.05;;
33413;SDS011;60055;41.884;12.534;2022-09-02T07:35:46;6.60;;;1.17;;
33413;SDS011;60055;41.884;12.534;2022-09-02T07:38:12;3.92;;;1.60;;
33413;SDS011;60055;41.884;12.534;2022-09-02T07:40:39;3.75;;;1.05;;
33413;SDS011;60055;41.884;12.534;2022-09-02T07:43:07;4.88;;;1.10;;
33413;SDS011;60055;41.884;12.534;2022-09-02T07:45:34;7.43;;;1.30;;
33413;SDS011;60055;41.884;12.534;2022-09-02T07:48:01;4.40;;;1.10;;
33413;SDS011;60055;41.884;12.534;2022-09-02T07:50:31;5.50;;;1.10;;
33413;SDS011;60055;41.884;12.534;2022-09-02T07:52:58;6.15;;;1.30;;
33413;SDS011;60055;41.884;12.534;2022-09-02T07:55:24;5.53;;;1.10;;
33413;SDS011;60055;41.884;12.534;2022-09-02T07:57:50;5.85;;;1.00;;
33413;SDS011;60055;41.884;12.534;2022-09-02T08:00:18;2.03;;;0.82;;
33413;SDS011;60055;41.884;12.534;2022-09-02T08:02:46;3.08;;;1.00;;
33413;SDS011;60055;41.884;12.534;2022-09-02T08:05:13;6.72;;;1.02;;
33413;SDS011;60055;41.884;12.534;2022-09-02T08:07:39;3.00;;;1.10;;
33413;SDS011;60055;41.884;12.534;2022-09-02T08:10:06;5.80;;;1.17;;
33413;SDS011;60055;41.884;12.534;2022-09-02T08:12:34;5.05;;;1.10;;
33413;SDS011;60055;41.884;12.534;2022-09-02T08:15:01;5.00;;;1.15;;
33413;SDS011;60055;41.884;12.534;2022-09-02T08:17:28;6.47;;;1.20;;
33413;SDS011;60055;41.884;12.534;2022-09-02T08:19:53;7.25;;;1.00;;
33413;SDS011;60055;41.884;12.534;2022-09-02T08:22:19;4.13;;;1.17;;
33413;SDS011;60055;41.884;12.534;2022-09-02T08:24:44;8.05;;;1.38;;
33413;SDS011;60055;41.884;12.534;2022-09-02T08:27:10;3.75;;;1.00;;
33413;SDS011;60055;41.884;12.534;2022-09-02T08:29:36;6.72;;;0.85;;
33413;SDS011;60055;41.884;12.534;2022-09-02T08:32:01;4.53;;;1.08;;
33413;SDS011;60055;41.884;12.534;2022-09-02T08:34:27;3.17;;;0.90;;
33413;SDS011;60055;41.884;12.534;2022-09-02T08:36:53;5.20;;;1.00;;
33413;SDS011;60055;41.884;12.534;2022-09-02T08:39:19;5.15;;;1.13;;
33413;SDS011;60055;41.884;12.534;2022-09-02T08:41:46;7.32;;;1.13;;
33413;SDS011;60055;41.884;12.534;2022-09-02T08:44:26;8.23;;;1.38;;
33413;SDS011;60055;41.884;12.534;2022-09-02T08:46:53;6.70;;;1.02;;
33413;SDS011;60055;41.884;12.534;2022-09-02T08:49:31;4.25;;;1.20;;
33413;SDS011;60055;41.884;12.534;2022-09-02T08:52:03;2.72;;;1.10;;
33413;SDS011;60055;41.884;12.534;2022-09-02T08:57:28;4.53;;;0.90;;
33413;SDS011;60055;41.884;12.534;2022-09-02T08:59:56;3.30;;;1.05;;
33413;SDS011;60055;41.884;12.534;2022-09-02T09:10:24;3.85;;;1.00;;
33413;SDS011;60055;41.884;12.534;2022-09-02T09:16:18;2.30;;;0.90;;
33413;SDS011;60055;41.884;12.534;2022-09-02T09:19:15;4.18;;;1.00;;
33413;SDS011;60055;41.884;12.534;2022-09-02T09:21:46;1.95;;;0.70;;
33413;SDS011;60055;41.884;12.534;2022-09-02T09:24:54;5.43;;;0.90;;
33413;SDS011;60055;41.884;12.534;2022-09-02T09:27:02;4.80;;;1.05;;
33413;SDS011;60055;41.884;12.534;2022-09-02T09:29:35;1.42;;;0.80;;
33413;SDS011;60055;41.884;12.534;2022-09-02T09:32:01;4.00;;;1.50;;
33413;SDS011;60055;41.884;12.534;2022-09-02T09:37:28;1.35;;;0.70;;
33413;SDS011;60055;41.884;12.534;2022-09-02T09:39:57;4.97;;;0.82;;
33413;SDS011;60055;41.884;12.534;2022-09-02T09:42:31;2.05;;;0.60;;
33413;SDS011;60055;41.884;12.534;2022-09-02T09:50:47;1.25;;;0.85;;
33413;SDS011;60055;41.884;12.534;2022-09-02T09:53:34;4.78;;;0.85;;
33413;SDS011;60055;41.884;12.534;2022-09-02T09:58:46;4.38;;;1.00;;
33413;SDS011;60055;41.884;12.534;2022-09-02T10:01:20;4.22;;;0.85;;
33413;SDS011;60055;41.884;12.534;2022-09-02T10:08:58;5.80;;;0.80;;
33413;SDS011;60055;41.884;12.534;2022-09-02T10:11:34;2.67;;;1.02;;
33413;SDS011;60055;41.884;12.534;2022-09-02T10:14:03;3.33;;;0.90;;
33413;SDS011;60055;41.884;12.534;2022-09-02T10:19:32;4.30;;;0.75;;
33413;SDS011;60055;41.884;12.534;2022-09-02T10:30:43;2.45;;;0.90;;
33413;SDS011;60055;41.884;12.534;2022-09-02T10:33:29;2.63;;;0.80;;
33413;SDS011;60055;41.884;12.534;2022-09-02T10:36:39;5.82;;;1.10;;
33413;SDS011;60055;41.884;12.534;2022-09-02T10:41:44;6.50;;;1.27;;
33413;SDS011;60055;41.884;12.534;2022-09-02T10:46:45;2.25;;;0.80;;
33413;SDS011;60055;41.884;12.534;2022-09-02T10:57:53;5.72;;;2.30;;
33413;SDS011;60055;41.884;12.534;2022-09-02T11:00:27;2.03;;;1.50;;
33413;SDS011;60055;41.884;12.534;2022-09-02T11:03:08;4.10;;;2.22;;
33413;SDS011;60055;41.884;12.534;2022-09-02T11:08:13;3.85;;;0.95;;
33413;SDS011;60055;41.884;12.534;2022-09-02T11:16:17;3.47;;;0.90;;
33413;SDS011;60055;41.884;12.534;2022-09-02T11:19:09;2.83;;;0.80;;
33413;SDS011;60055;41.884;12.534;2022-09-02T11:21:59;5.47;;;0.90;;
33413;SDS011;60055;41.884;12.534;2022-09-02T11:24:54;3.80;;;1.13;;
33413;SDS011;60055;41.884;12.534;2022-09-02T11:27:35;1.83;;;0.70;;
33413;SDS011;60055;41.884;12.534;2022-09-02T11:30:24;6.15;;;0.90;;
33413;SDS011;60055;41.884;12.534;2022-09-02T11:35:41;4.03;;;1.00;;
33413;SDS011;60055;41.884;12.534;2022-09-02T11:53:40;1.45;;;0.80;;
33413;SDS011;60055;41.884;12.534;2022-09-02T11:56:12;2.92;;;0.70;;
33413;SDS011;60055;41.884;12.534;2022-09-02T11:58:49;1.83;;;0.90;;
33413;SDS011;60055;41.884;12.534;2022-09-02T12:03:52;2.60;;;0.70;;
33413;SDS011;60055;41.884;12.534;2022-09-02T12:06:19;3.85;;;0.80;;
33413;SDS011;60055;41.884;12.534;2022-09-02T12:14:06;1.48;;;0.75;;
33413;SDS011;60055;41.884;12.534;2022-09-02T12:16:39;2.53;;;0.90;;
33413;SDS011;60055;41.884;12.534;2022-09-02T12:21:35;5.10;;;1.30;;
33413;SDS011;60055;41.884;12.534;2022-09-02T12:24:21;4.47;;;0.80;;
33413;SDS011;60055;41.884;12.534;2022-09-02T12:29:36;3.90;;;0.80;;
33413;SDS011;60055;41.884;12.534;2022-09-02T12:32:02;3.60;;;0.80;;
33413;SDS011;60055;41.884;12.534;2022-09-02T12:36:58;10.93;;;1.30;;
33413;SDS011;60055;41.884;12.534;2022-09-02T12:47:45;4.97;;;1.10;;
33413;SDS011;60055;41.884;12.534;2022-09-02T12:52:45;1.80;;;0.80;;
33413;SDS011;60055;41.884;12.534;2022-09-02T12:55:28;2.28;;;0.82;;
33413;SDS011;60055;41.884;12.534;2022-09-02T12:58:11;1.52;;;0.70;;
33413;SDS011;60055;41.884;12.534;2022-09-02T13:03:52;3.10;;;0.70;;
33413;SDS011;60055;41.884;12.534;2022-09-02T13:06:41;2.88;;;1.23;;
33413;SDS011;60055;41.884;12.534;2022-09-02T13:15:21;4.07;;;0.98;;
33413;SDS011;60055;41.884;12.534;2022-09-02T13:31:59;3.20;;;0.70;;
33413;SDS011;60055;41.884;12.534;2022-09-02T13:34:39;4.78;;;1.20;;
33413;SDS011;60055;41.884;12.534;2022-09-02T13:37:25;2.30;;;1.23;;
33413;SDS011;60055;41.884;12.534;2022-09-02T13:39:55;3.97;;;1.00;;
33413;SDS011;60055;41.884;12.534;2022-09-02T13:42:22;2.88;;;1.13;;
33413;SDS011;60055;41.884;12.534;2022-09-02T13:44:49;2.60;;;0.93;;
33413;SDS011;60055;41.884;12.534;2022-09-02T13:47:15;8.15;;;0.90;;
33413;SDS011;60055;41.884;12.534;2022-09-02T13:49:46;7.63;;;0.70;;
33413;SDS011;60055;41.884;12.534;2022-09-02T13:52:16;5.43;;;1.10;;
33413;SDS011;60055;41.884;12.534;2022-09-02T13:54:44;7.88;;;1.13;;
33413;SDS011;60055;41.884;12.534;2022-09-02T13:57:17;5.25;;;0.90;;
33413;SDS011;60055;41.884;12.534;2022-09-02T13:59:47;1.98;;;0.85;;
33413;SDS011;60055;41.884;12.534;2022-09-02T14:04:49;5.32;;;1.10;;
33413;SDS011;60055;41.884;12.534;2022-09-02T14:07:22;4.22;;;1.20;;
33413;SDS011;60055;41.884;12.534;2022-09-02T14:10:11;2.17;;;0.88;;
33413;SDS011;60055;41.884;12.534;2022-09-02T14:12:40;3.28;;;1.02;;
33413;SDS011;60055;41.884;12.534;2022-09-02T14:15:07;3.92;;;0.80;;
33413;SDS011;60055;41.884;12.534;2022-09-02T14:17:36;6.93;;;1.10;;
33413;SDS011;60055;41.884;12.534;2022-09-02T14:22:42;6.72;;;1.10;;
33413;SDS011;60055;41.884;12.534;2022-09-02T14:30:52;3.20;;;1.10;;
33413;SDS011;60055;41.884;12.534;2022-09-02T14:36:04;6.45;;;1.13;;
33413;SDS011;60055;41.884;12.534;2022-09-02T14:38:55;7.45;;;1.20;;
33413;SDS011;60055;41.884;12.534;2022-09-02T14:41:33;2.80;;;1.00;;
33413;SDS011;60055;41.884;12.534;2022-09-02T14:44:13;5.90;;;0.90;;
33413;SDS011;60055;41.884;12.534;2022-09-02T14:49:20;9.38;;;2.88;;
33413;SDS011;60055;41.884;12.534;2022-09-02T14:51:51;8.70;;;1.73;;
33413;SDS011;60055;41.884;12.534;2022-09-02T14:57:02;3.15;;;1.13;;
33413;SDS011;60055;41.884;12.534;2022-09-02T14:59:29;5.88;;;1.02;;
33413;SDS011;60055;41.884;12.534;2022-09-02T15:01:55;3.38;;;1.33;;
33413;SDS011;60055;41.884;12.534;2022-09-02T15:04:23;5.68;;;1.60;;
33413;SDS011;60055;41.884;12.534;2022-09-02T15:06:49;8.13;;;1.20;;
33413;SDS011;60055;41.884;12.534;2022-09-02T15:09:16;5.82;;;1.40;;
33413;SDS011;60055;41.884;12.534;2022-09-02T15:11:47;5.22;;;1.17;;
33413;SDS011;60055;41.884;12.534;2022-09-02T15:16:40;3.35;;;0.93;;
33413;SDS011;60055;41.884;12.534;2022-09-02T15:19:06;5.28;;;1.10;;
33413;SDS011;60055;41.884;12.534;2022-09-02T15:21:32;3.08;;;1.00;;
33413;SDS011;60055;41.884;12.534;2022-09-02T15:23:57;5.25;;;1.48;;
33413;SDS011;60055;41.884;12.534;2022-09-02T15:26:23;2.88;;;0.80;;
33413;SDS011;60055;41.884;12.534;2022-09-02T15:28:49;2.22;;;0.88;;
33413;SDS011;60055;41.884;12.534;2022-09-02T15:31:15;6.07;;;1.08;;
33413;SDS011;60055;41.884;12.534;2022-09-02T15:33:41;6.45;;;1.25;;
33413;SDS011;60055;41.884;12.534;2022-09-02T15:36:12;2.83;;;1.15;;
33413;SDS011;60055;41.884;12.534;2022-09-02T15:38:38;3.50;;;1.30;;
33413;SDS011;60055;41.884;12.534;2022-09-02T15:41:18;4.53;;;1.00;;
33413;SDS011;60055;41.884;12.534;2022-09-02T15:43:45;7.18;;;1.42;;
33413;SDS011;60055;41.884;12.534;2022-09-02T15:46:16;4.28;;;1.35;;
33413;SDS011;60055;41.884;12.534;2022-09-02T15:48:42;6.60;;;1.70;;
33413;SDS011;60055;41.884;12.534;2022-09-02T15:51:11;5.72;;;1.00;;
33413;SDS011;60055;41.884;12.534;2022-09-02T15:53:42;2.35;;;0.98;;
33413;SDS011;60055;41.884;12.534;2022-09-02T15:56:23;5.78;;;2.00;;
33413;SDS011;60055;41.884;12.534;2022-09-02T15:58:53;3.15;;;1.10;;
33413;SDS011;60055;41.884;12.534;2022-09-02T16:01:22;7.53;;;1.20;;
33413;SDS011;60055;41.884;12.534;2022-09-02T16:04:08;3.15;;;1.20;;
33413;SDS011;60055;41.884;12.534;2022-09-02T16:06:35;6.72;;;1.42;;
33413;SDS011;60055;41.884;12.534;2022-09-02T16:09:03;5.70;;;1.40;;
33413;SDS011;60055;41.884;12.534;2022-09-02T16:11:30;3.22;;;1.40;;
33413;SDS011;60055;41.884;12.534;2022-09-02T16:13:55;3.08;;;1.30;;
33413;SDS011;60055;41.884;12.534;2022-09-02T16:16:21;4.82;;;2.13;;
33413;SDS011;60055;41.884;12.534;2022-09-02T16:18:50;3.70;;;1.05;;
33413;SDS011;60055;41.884;12.534;2022-09-02T16:21:17;6.18;;;1.63;;
33413;SDS011;60055;41.884;12.534;2022-09-02T16:23:44;5.20;;;1.58;;
33413;SDS011;60055;41.884;12.534;2022-09-02T16:28:49;4.13;;;1.50;;
33413;SDS011;60055;41.884;12.534;2022-09-02T16:31:17;5.32;;;1.38;;
33413;SDS011;60055;41.884;12.534;2022-09-02T16:33:58;5.80;;;1.40;;
33413;SDS011;60055;41.884;12.534;2022-09-02T16:36:33;4.40;;;1.70;;
33413;SDS011;60055;41.884;12.534;2022-09-02T16:39:03;7.18;;;1.13;;
33413;SDS011;60055;41.884;12.534;2022-09-02T16:43:59;8.80;;;1.70;;
33413;SDS011;60055;41.884;12.534;2022-09-02T16:46:29;4.88;;;1.30;;
33413;SDS011;60055;41.884;12.534;2022-09-02T16:48:55;3.92;;;1.10;;
33413;SDS011;60055;41.884;12.534;2022-09-02T16:51:22;3.70;;;1.35;;
33413;SDS011;60055;41.884;12.534;2022-09-02T16:54:07;7.93;;;1.80;;
33413;SDS011;60055;41.884;12.534;2022-09-02T16:56:33;9.20;;;1.65;;
33413;SDS011;60055;41.884;12.534;2022-09-02T16:59:01;13.93;;;3.90;;
33413;SDS011;60055;41.884;12.534;2022-09-02T17:01:32;13.05;;;2.80;;
33413;SDS011;60055;41.884;12.534;2022-09-02T17:03:58;2.90;;;1.40;;
33413;SDS011;60055;41.884;12.534;2022-09-02T17:06:25;7.78;;;2.10;;
33413;SDS011;60055;41.884;12.534;2022-09-02T17:08:51;7.95;;;2.03;;
33413;SDS011;60055;41.884;12.534;2022-09-02T17:11:19;12.73;;;3.92;;
33413;SDS011;60055;41.884;12.534;2022-09-02T17:13:59;9.23;;;2.97;;
33413;SDS011;60055;41.884;12.534;2022-09-02T17:16:36;38.70;;;12.05;;
33413;SDS011;60055;41.884;12.534;2022-09-02T17:19:04;12.18;;;3.58;;
33413;SDS011;60055;41.884;12.534;2022-09-02T17:21:35;4.40;;;1.92;;
33413;SDS011;60055;41.884;12.534;2022-09-02T17:24:04;5.28;;;2.22;;